sensor_id;sensor_type;location;lat;lon;timestamp;pressure;altitude;pressure_sealevel;temperature;humidity
72685;BME280;61365;52.162;4.500;2023-09-19T00:02:03;100608.50;;;17.79;58.42
72685;BME280;61365;52.162;4.500;2023-09-19T00:04:32;100610.38;;;17.77;59.76
72685;BME280;61365;52.162;4.500;2023-09-19T00:06:58;100622.19;;;17.92;59.31
72685;BME280;61365;52.162;4.500;2023-09-19T00:09:25;100619.78;;;17.85;57.99
72685;BME280;61365;52.162;4.500;2023-09-19T00:11:54;100617.88;;;17.89;59.62
72685;BME280;61365;52.162;4.500;2023-09-19T00:14:20;100630.13;;;17.93;58.41
72685;BME280;61365;52.162;4.500;2023-09-19T00:16:50;100627.59;;;17.90;59.01
72685;BME280;61365;52.162;4.500;2023-09-19T00:19:16;100628.28;;;17.95;57.04
72685;BME280;61365;52.162;4.500;2023-09-19T00:21:42;100628.59;;;17.86;57.38
72685;BME280;61365;52.162;4.500;2023-09-19T00:24:09;100625.84;;;17.89;59.82
72685;BME280;61365;52.162;4.500;2023-09-19T00:26:35;100625.19;;;17.82;58.47
72685;BME280;61365;52.162;4.500;2023-09-19T00:29:02;100629.69;;;17.80;59.42
72685;BME280;61365;52.162;4.500;2023-09-19T00:31:29;100635.47;;;17.92;59.79
72685;BME280;61365;52.162;4.500;2023-09-19T00:33:55;100646.09;;;17.92;61.12
72685;BME280;61365;52.162;4.500;2023-09-19T00:36:25;100640.69;;;17.95;59.93
72685;BME280;61365;52.162;4.500;2023-09-19T00:38:51;100637.09;;;17.96;59.70
72685;BME280;61365;52.162;4.500;2023-09-19T00:41:18;100635.75;;;17.84;59.11
72685;BME280;61365;52.162;4.500;2023-09-19T00:43:44;100631.72;;;17.72;61.09
72685;BME280;61365;52.162;4.500;2023-09-19T00:46:10;100631.44;;;17.81;59.82
72685;BME280;61365;52.162;4.500;2023-09-19T00:48:39;100632.88;;;17.90;59.52
72685;BME280;61365;52.162;4.500;2023-09-19T00:51:09;100623.38;;;17.84;58.56
72685;BME280;61365;52.162;4.500;2023-09-19T00:53:36;100629.88;;;17.76;59.90
72685;BME280;61365;52.162;4.500;2023-09-19T00:56:04;100638.03;;;17.95;59.97
72685;BME280;61365;52.162;4.500;2023-09-19T00:58:34;100633.00;;;17.87;58.68
72685;BME280;61365;52.162;4.500;2023-09-19T01:01:02;100642.97;;;17.80;59.02
72685;BME280;61365;52.162;4.500;2023-09-19T01:03:33;100638.84;;;17.71;59.45
72685;BME280;61365;52.162;4.500;2023-09-19T01:05:59;100639.50;;;17.78;59.39
72685;BME280;61365;52.162;4.500;2023-09-19T01:08:28;100645.16;;;17.94;61.29
72685;BME280;61365;52.162;4.500;2023-09-19T01:10:56;100649.47;;;17.98;60.42
72685;BME280;61365;52.162;4.500;2023-09-19T01:13:40;100651.53;;;17.89;60.65
72685;BME280;61365;52.162;4.500;2023-09-19T01:16:42;100639.09;;;17.91;61.62
72685;BME280;61365;52.162;4.500;2023-09-19T01:22:25;100640.72;;;17.68;60.97
72685;BME280;61365;52.162;4.500;2023-09-19T01:24:55;100638.22;;;17.63;60.04
72685;BME280;61365;52.162;4.500;2023-09-19T01:30:27;100655.94;;;17.63;60.15
72685;BME280;61365;52.162;4.500;2023-09-19T01:33:01;100647.28;;;17.58;62.39
72685;BME280;61365;52.162;4.500;2023-09-19T01:35:29;100640.56;;;17.73;61.97
72685;BME280;61365;52.162;4.500;2023-09-19T01:37:55;100659.44;;;17.90;62.56
72685;BME280;61365;52.162;4.500;2023-09-19T01:40:22;100655.16;;;17.86;62.07
72685;BME280;61365;52.162;4.500;2023-09-19T01:42:59;100654.50;;;17.79;61.71
72685;BME280;61365;52.162;4.500;2023-09-19T01:45:55;100648.16;;;17.83;62.20
72685;BME280;61365;52.162;4.500;2023-09-19T01:53:30;100654.28;;;17.85;62.15
72685;BME280;61365;52.162;4.500;2023-09-19T01:56:01;100647.38;;;17.80;62.73
72685;BME280;61365;52.162;4.500;2023-09-19T01:58:34;100640.25;;;17.82;63.11
72685;BME280;61365;52.162;4.500;2023-09-19T02:01:08;100650.31;;;17.72;62.55
72685;BME280;61365;52.162;4.500;2023-09-19T02:03:38;100648.81;;;17.65;62.46
72685;BME280;61365;52.162;4.500;2023-09-19T02:06:06;100649.91;;;17.84;61.87
72685;BME280;61365;52.162;4.500;2023-09-19T02:08:37;100647.34;;;17.81;61.17
72685;BME280;61365;52.162;4.500;2023-09-19T02:11:03;100657.09;;;17.54;62.25
72685;BME280;61365;52.162;4.500;2023-09-19T02:13:29;100652.56;;;17.58;62.89
72685;BME280;61365;52.162;4.500;2023-09-19T02:15:57;100662.47;;;17.52;62.90
72685;BME280;61365;52.162;4.500;2023-09-19T02:18:23;100662.16;;;17.35;62.62
72685;BME280;61365;52.162;4.500;2023-09-19T02:20:49;100666.72;;;17.30;63.69
72685;BME280;61365;52.162;4.500;2023-09-19T02:23:17;100667.88;;;17.49;63.60
72685;BME280;61365;52.162;4.500;2023-09-19T02:25:51;100667.88;;;17.49;61.06
72685;BME280;61365;52.162;4.500;2023-09-19T02:28:18;100675.66;;;17.54;62.12
72685;BME280;61365;52.162;4.500;2023-09-19T02:30:47;100664.47;;;17.46;62.11
72685;BME280;61365;52.162;4.500;2023-09-19T02:33:14;100675.06;;;17.46;62.42
72685;BME280;61365;52.162;4.500;2023-09-19T02:35:40;100674.25;;;17.44;61.27
72685;BME280;61365;52.162;4.500;2023-09-19T02:38:06;100674.09;;;17.48;61.94
72685;BME280;61365;52.162;4.500;2023-09-19T02:40:37;100667.09;;;17.46;60.81
72685;BME280;61365;52.162;4.500;2023-09-19T02:43:03;100665.28;;;17.48;60.25
72685;BME280;61365;52.162;4.500;2023-09-19T02:45:30;100665.28;;;17.48;62.75
72685;BME280;61365;52.162;4.500;2023-09-19T02:47:57;100667.31;;;17.66;62.55
72685;BME280;61365;52.162;4.500;2023-09-19T02:50:24;100664.84;;;17.60;61.56
72685;BME280;61365;52.162;4.500;2023-09-19T02:52:50;100660.19;;;17.67;61.13
72685;BME280;61365;52.162;4.500;2023-09-19T02:55:16;100663.31;;;17.53;60.27
72685;BME280;61365;52.162;4.500;2023-09-19T02:57:48;100664.13;;;17.55;61.18
72685;BME280;61365;52.162;4.500;2023-09-19T03:00:17;100655.16;;;17.59;61.54
72685;BME280;61365;52.162;4.500;2023-09-19T03:02:51;100664.38;;;17.76;62.21
72685;BME280;61365;52.162;4.500;2023-09-19T03:05:22;100667.06;;;17.74;60.98
72685;BME280;61365;52.162;4.500;2023-09-19T03:07:49;100668.94;;;17.70;60.56
72685;BME280;61365;52.162;4.500;2023-09-19T03:10:19;100664.56;;;17.69;60.50
72685;BME280;61365;52.162;4.500;2023-09-19T03:12:46;100661.34;;;17.86;62.18
72685;BME280;61365;52.162;4.500;2023-09-19T03:15:13;100659.06;;;17.76;61.58
72685;BME280;61365;52.162;4.500;2023-09-19T03:17:44;100656.28;;;17.79;62.22
72685;BME280;61365;52.162;4.500;2023-09-19T03:20:11;100655.78;;;17.67;61.37
72685;BME280;61365;52.162;4.500;2023-09-19T03:22:39;100645.91;;;17.71;61.30
72685;BME280;61365;52.162;4.500;2023-09-19T03:25:06;100649.56;;;17.68;62.08
72685;BME280;61365;52.162;4.500;2023-09-19T03:27:34;100649.34;;;17.75;61.93
72685;BME280;61365;52.162;4.500;2023-09-19T03:30:01;100647.63;;;17.74;63.09
72685;BME280;61365;52.162;4.500;2023-09-19T03:32:31;100656.25;;;17.53;61.80
72685;BME280;61365;52.162;4.500;2023-09-19T03:34:57;100661.84;;;17.44;62.67
72685;BME280;61365;52.162;4.500;2023-09-19T03:37:23;100678.97;;;17.34;63.00
72685;BME280;61365;52.162;4.500;2023-09-19T03:39:49;100671.50;;;17.47;62.92
72685;BME280;61365;52.162;4.500;2023-09-19T03:42:15;100668.22;;;17.38;60.86
72685;BME280;61365;52.162;4.500;2023-09-19T03:44:41;100675.88;;;17.48;61.33
72685;BME280;61365;52.162;4.500;2023-09-19T03:47:07;100678.72;;;17.41;61.34
72685;BME280;61365;52.162;4.500;2023-09-19T03:49:33;100677.66;;;17.47;60.47
72685;BME280;61365;52.162;4.500;2023-09-19T03:51:59;100683.84;;;17.48;62.11
72685;BME280;61365;52.162;4.500;2023-09-19T03:54:25;100682.13;;;17.47;62.45
72685;BME280;61365;52.162;4.500;2023-09-19T03:56:52;100682.69;;;17.56;62.11
72685;BME280;61365;52.162;4.500;2023-09-19T03:59:18;100667.97;;;17.46;60.97
72685;BME280;61365;52.162;4.500;2023-09-19T04:01:44;100691.66;;;17.52;61.50
72685;BME280;61365;52.162;4.500;2023-09-19T04:04:10;100690.28;;;17.67;61.64
72685;BME280;61365;52.162;4.500;2023-09-19T04:06:38;100688.69;;;17.35;60.72
72685;BME280;61365;52.162;4.500;2023-09-19T04:09:04;100687.13;;;17.28;62.44
72685;BME280;61365;52.162;4.500;2023-09-19T04:11:33;100693.97;;;17.35;62.38
72685;BME280;61365;52.162;4.500;2023-09-19T04:13:59;100690.41;;;17.36;60.00
72685;BME280;61365;52.162;4.500;2023-09-19T04:16:29;100694.81;;;17.37;60.96
72685;BME280;61365;52.162;4.500;2023-09-19T04:18:55;100693.66;;;17.44;60.56
72685;BME280;61365;52.162;4.500;2023-09-19T04:21:21;100696.09;;;17.52;62.11
72685;BME280;61365;52.162;4.500;2023-09-19T04:23:47;100698.97;;;17.44;60.99
72685;BME280;61365;52.162;4.500;2023-09-19T04:26:13;100700.94;;;17.39;61.21
72685;BME280;61365;52.162;4.500;2023-09-19T04:28:42;100708.25;;;17.31;62.74
72685;BME280;61365;52.162;4.500;2023-09-19T04:31:09;100713.38;;;17.37;62.56
72685;BME280;61365;52.162;4.500;2023-09-19T04:33:37;100715.94;;;17.40;61.38
72685;BME280;61365;52.162;4.500;2023-09-19T04:36:03;100705.25;;;17.41;62.40
72685;BME280;61365;52.162;4.500;2023-09-19T04:38:33;100716.69;;;17.44;62.24
72685;BME280;61365;52.162;4.500;2023-09-19T04:40:59;100708.41;;;17.53;60.19
72685;BME280;61365;52.162;4.500;2023-09-19T04:43:25;100714.31;;;17.34;61.29
72685;BME280;61365;52.162;4.500;2023-09-19T04:45:52;100718.22;;;17.22;60.68
72685;BME280;61365;52.162;4.500;2023-09-19T04:48:22;100713.81;;;17.21;61.77
72685;BME280;61365;52.162;4.500;2023-09-19T04:50:51;100711.47;;;17.40;61.06
72685;BME280;61365;52.162;4.500;2023-09-19T04:53:17;100713.72;;;17.24;62.03
72685;BME280;61365;52.162;4.500;2023-09-19T04:55:54;100713.81;;;17.21;61.87
72685;BME280;61365;52.162;4.500;2023-09-19T04:58:21;100712.16;;;17.19;61.64
72685;BME280;61365;52.162;4.500;2023-09-19T05:00:48;100720.94;;;17.21;61.04
72685;BME280;61365;52.162;4.500;2023-09-19T05:03:16;100711.00;;;17.28;60.30
72685;BME280;61365;52.162;4.500;2023-09-19T05:05:43;100708.97;;;17.36;61.48
72685;BME280;61365;52.162;4.500;2023-09-19T05:08:09;100709.34;;;17.23;60.26
72685;BME280;61365;52.162;4.500;2023-09-19T05:10:35;100712.09;;;17.20;62.19
72685;BME280;61365;52.162;4.500;2023-09-19T05:13:04;100704.63;;;17.33;63.00
72685;BME280;61365;52.162;4.500;2023-09-19T05:15:30;100707.34;;;17.32;62.96
72685;BME280;61365;52.162;4.500;2023-09-19T05:17:56;100707.56;;;17.24;63.64
72685;BME280;61365;52.162;4.500;2023-09-19T05:20:23;100697.91;;;17.21;63.34
72685;BME280;61365;52.162;4.500;2023-09-19T05:23:01;100701.94;;;17.35;63.32
72685;BME280;61365;52.162;4.500;2023-09-19T05:25:30;100711.63;;;17.36;63.74
72685;BME280;61365;52.162;4.500;2023-09-19T05:27:58;100705.44;;;17.35;63.32
72685;BME280;61365;52.162;4.500;2023-09-19T05:30:25;100713.81;;;17.21;63.32
72685;BME280;61365;52.162;4.500;2023-09-19T05:32:55;100716.44;;;17.23;64.11
72685;BME280;61365;52.162;4.500;2023-09-19T05:35:22;100710.56;;;17.41;63.15
72685;BME280;61365;52.162;4.500;2023-09-19T05:37:51;100717.06;;;17.60;62.84
72685;BME280;61365;52.162;4.500;2023-09-19T05:40:18;100720.75;;;17.54;62.16
72685;BME280;61365;52.162;4.500;2023-09-19T05:42:45;100719.28;;;17.45;62.15
72685;BME280;61365;52.162;4.500;2023-09-19T05:45:12;100722.16;;;17.66;62.80
72685;BME280;61365;52.162;4.500;2023-09-19T05:47:39;100729.97;;;17.42;63.40
72685;BME280;61365;52.162;4.500;2023-09-19T05:50:07;100722.47;;;17.56;62.21
72685;BME280;61365;52.162;4.500;2023-09-19T05:52:36;100728.59;;;17.59;64.23
72685;BME280;61365;52.162;4.500;2023-09-19T05:55:05;100731.13;;;17.35;62.28
72685;BME280;61365;52.162;4.500;2023-09-19T05:57:33;100722.47;;;17.56;63.19
72685;BME280;61365;52.162;4.500;2023-09-19T06:00:00;100725.94;;;17.59;62.94
72685;BME280;61365;52.162;4.500;2023-09-19T06:02:26;100721.09;;;17.45;64.39
72685;BME280;61365;52.162;4.500;2023-09-19T06:04:54;100725.16;;;17.55;63.28
72685;BME280;61365;52.162;4.500;2023-09-19T06:07:21;100726.88;;;17.58;64.44
72685;BME280;61365;52.162;4.500;2023-09-19T06:09:52;100729.63;;;17.53;63.46
72685;BME280;61365;52.162;4.500;2023-09-19T06:12:21;100731.66;;;17.73;64.73
72685;BME280;61365;52.162;4.500;2023-09-19T06:14:47;100737.16;;;17.94;63.00
72685;BME280;61365;52.162;4.500;2023-09-19T06:17:14;100735.63;;;18.15;62.24
72685;BME280;61365;52.162;4.500;2023-09-19T06:19:41;100736.13;;;18.26;61.97
72685;BME280;61365;52.162;4.500;2023-09-19T06:22:14;100729.75;;;18.30;60.99
72685;BME280;61365;52.162;4.500;2023-09-19T06:24:44;100743.09;;;18.29;62.01
72685;BME280;61365;52.162;4.500;2023-09-19T06:27:12;100747.56;;;18.54;61.08
72685;BME280;61365;52.162;4.500;2023-09-19T06:29:39;100744.75;;;18.33;61.07
72685;BME280;61365;52.162;4.500;2023-09-19T06:32:08;100742.53;;;18.46;59.60
72685;BME280;61365;52.162;4.500;2023-09-19T06:34:35;100754.91;;;18.45;59.26
72685;BME280;61365;52.162;4.500;2023-09-19T06:37:01;100742.81;;;18.38;59.99
72685;BME280;61365;52.162;4.500;2023-09-19T06:39:28;100745.81;;;18.53;59.31
72685;BME280;61365;52.162;4.500;2023-09-19T06:41:55;100751.06;;;18.54;58.90
72685;BME280;61365;52.162;4.500;2023-09-19T06:44:21;100749.44;;;18.75;58.72
72685;BME280;61365;52.162;4.500;2023-09-19T06:46:50;100745.16;;;18.71;59.04
72685;BME280;61365;52.162;4.500;2023-09-19T06:49:17;100750.25;;;18.78;58.83
72685;BME280;61365;52.162;4.500;2023-09-19T06:51:43;100756.72;;;18.96;58.22
72685;BME280;61365;52.162;4.500;2023-09-19T06:54:10;100760.25;;;18.95;58.54
72685;BME280;61365;52.162;4.500;2023-09-19T06:56:36;100751.81;;;19.31;58.88
72685;BME280;61365;52.162;4.500;2023-09-19T06:59:02;100746.28;;;19.59;57.43
72685;BME280;61365;52.162;4.500;2023-09-19T07:01:31;100746.81;;;19.68;55.51
72685;BME280;61365;52.162;4.500;2023-09-19T07:03:57;100749.41;;;19.47;57.10
72685;BME280;61365;52.162;4.500;2023-09-19T07:06:24;100751.03;;;19.51;57.94
72685;BME280;61365;52.162;4.500;2023-09-19T07:08:50;100750.34;;;19.46;57.19
72685;BME280;61365;52.162;4.500;2023-09-19T07:11:16;100750.56;;;19.63;56.21
72685;BME280;61365;52.162;4.500;2023-09-19T07:13:42;100750.59;;;19.84;55.46
72685;BME280;61365;52.162;4.500;2023-09-19T07:16:09;100746.41;;;19.78;56.41
72685;BME280;61365;52.162;4.500;2023-09-19T07:18:53;100756.97;;;19.80;55.81
72685;BME280;61365;52.162;4.500;2023-09-19T07:21:22;100747.56;;;19.93;55.88
72685;BME280;61365;52.162;4.500;2023-09-19T07:23:48;100755.44;;;19.52;55.07
72685;BME280;61365;52.162;4.500;2023-09-19T07:26:15;100758.28;;;19.47;59.16
72685;BME280;61365;52.162;4.500;2023-09-19T07:28:42;100758.84;;;19.10;60.28
72685;BME280;61365;52.162;4.500;2023-09-19T07:31:08;100756.88;;;19.15;60.84
72685;BME280;61365;52.162;4.500;2023-09-19T07:33:34;100772.19;;;19.08;61.37
72685;BME280;61365;52.162;4.500;2023-09-19T07:36:01;100772.53;;;19.23;60.81
72685;BME280;61365;52.162;4.500;2023-09-19T07:38:28;100765.03;;;19.10;62.08
72685;BME280;61365;52.162;4.500;2023-09-19T07:40:59;100781.13;;;18.82;62.95
72685;BME280;61365;52.162;4.500;2023-09-19T07:43:26;100770.06;;;18.69;64.52
72685;BME280;61365;52.162;4.500;2023-09-19T07:45:52;100774.22;;;18.51;64.51
72685;BME280;61365;52.162;4.500;2023-09-19T07:48:19;100777.28;;;18.65;64.68
72685;BME280;61365;52.162;4.500;2023-09-19T07:50:45;100772.66;;;18.70;64.38
72685;BME280;61365;52.162;4.500;2023-09-19T07:53:11;100771.06;;;18.66;65.78
72685;BME280;61365;52.162;4.500;2023-09-19T07:55:41;100779.28;;;18.84;65.47
72685;BME280;61365;52.162;4.500;2023-09-19T07:58:07;100769.19;;;18.92;65.22
72685;BME280;61365;52.162;4.500;2023-09-19T08:00:34;100762.34;;;19.34;63.20
72685;BME280;61365;52.162;4.500;2023-09-19T08:03:00;100746.94;;;18.96;64.68
72685;BME280;61365;52.162;4.500;2023-09-19T08:05:27;100760.88;;;19.27;63.99
72685;BME280;61365;52.162;4.500;2023-09-19T08:07:53;100758.22;;;19.49;62.93
72685;BME280;61365;52.162;4.500;2023-09-19T08:10:22;100740.19;;;19.78;62.23
72685;BME280;61365;52.162;4.500;2023-09-19T08:12:48;100746.84;;;19.45;62.84
72685;BME280;61365;52.162;4.500;2023-09-19T08:15:15;100741.03;;;19.12;63.65
72685;BME280;61365;52.162;4.500;2023-09-19T08:17:42;100734.69;;;19.38;63.21
72685;BME280;61365;52.162;4.500;2023-09-19T08:20:09;100744.84;;;19.28;62.86
72685;BME280;61365;52.162;4.500;2023-09-19T08:22:43;100739.09;;;19.61;62.78
72685;BME280;61365;52.162;4.500;2023-09-19T08:25:13;100739.16;;;20.04;61.67
72685;BME280;61365;52.162;4.500;2023-09-19T08:27:43;100733.88;;;19.80;62.38
72685;BME280;61365;52.162;4.500;2023-09-19T08:30:18;100739.94;;;19.84;61.57
72685;BME280;61365;52.162;4.500;2023-09-19T08:32:59;100749.44;;;19.69;61.57
72685;BME280;61365;52.162;4.500;2023-09-19T08:35:27;100753.06;;;19.90;61.32
72685;BME280;61365;52.162;4.500;2023-09-19T08:37:53;100756.38;;;19.73;62.56
72685;BME280;61365;52.162;4.500;2023-09-19T08:40:21;100761.38;;;19.81;61.93
72685;BME280;61365;52.162;4.500;2023-09-19T08:42:48;100764.34;;;19.95;61.47
72685;BME280;61365;52.162;4.500;2023-09-19T08:45:15;100760.41;;;19.61;63.48
72685;BME280;61365;52.162;4.500;2023-09-19T08:47:45;100753.56;;;19.54;62.11
72685;BME280;61365;52.162;4.500;2023-09-19T08:50:27;100758.63;;;19.38;63.12
72685;BME280;61365;52.162;4.500;2023-09-19T08:53:00;100752.22;;;19.20;63.23
72685;BME280;61365;52.162;4.500;2023-09-19T08:55:28;100766.81;;;19.10;63.44
72685;BME280;61365;52.162;4.500;2023-09-19T08:57:59;100762.28;;;18.88;65.62
72685;BME280;61365;52.162;4.500;2023-09-19T09:00:34;100765.56;;;18.95;64.97
72685;BME280;61365;52.162;4.500;2023-09-19T09:03:01;100765.44;;;18.99;64.68
72685;BME280;61365;52.162;4.500;2023-09-19T09:05:29;100759.66;;;18.86;66.45
72685;BME280;61365;52.162;4.500;2023-09-19T09:07:57;100758.97;;;18.81;68.20
72685;BME280;61365;52.162;4.500;2023-09-19T09:10:25;100749.59;;;18.96;68.64
72685;BME280;61365;52.162;4.500;2023-09-19T09:12:52;100755.81;;;18.95;67.15
72685;BME280;61365;52.162;4.500;2023-09-19T09:15:23;100767.78;;;19.31;66.63
72685;BME280;61365;52.162;4.500;2023-09-19T09:17:50;100731.75;;;19.22;65.18
72685;BME280;61365;52.162;4.500;2023-09-19T09:20:19;100730.09;;;19.86;63.41
72685;BME280;61365;52.162;4.500;2023-09-19T09:22:52;100733.50;;;20.12;62.37
72685;BME280;61365;52.162;4.500;2023-09-19T09:25:20;100739.78;;;19.89;63.14
72685;BME280;61365;52.162;4.500;2023-09-19T09:27:59;100742.53;;;19.86;63.33
72685;BME280;61365;52.162;4.500;2023-09-19T09:30:33;100740.00;;;20.05;62.02
72685;BME280;61365;52.162;4.500;2023-09-19T09:33:10;100735.69;;;20.02;61.48
72685;BME280;61365;52.162;4.500;2023-09-19T09:35:47;100731.78;;;19.89;62.05
72685;BME280;61365;52.162;4.500;2023-09-19T09:38:46;100732.88;;;20.05;61.74
72685;BME280;61365;52.162;4.500;2023-09-19T09:41:15;100716.03;;;20.05;61.89
72685;BME280;61365;52.162;4.500;2023-09-19T09:43:56;100734.13;;;19.97;62.33
72685;BME280;61365;52.162;4.500;2023-09-19T09:46:41;100719.50;;;20.07;61.14
72685;BME280;61365;52.162;4.500;2023-09-19T09:49:31;100716.75;;;20.08;61.48
72685;BME280;61365;52.162;4.500;2023-09-19T09:52:06;100714.91;;;20.10;61.97
72685;BME280;61365;52.162;4.500;2023-09-19T09:55:01;100718.44;;;20.11;61.74
72685;BME280;61365;52.162;4.500;2023-09-19T09:57:31;100696.66;;;20.22;61.43
72685;BME280;61365;52.162;4.500;2023-09-19T09:59:58;100704.72;;;20.41;61.01
72685;BME280;61365;52.162;4.500;2023-09-19T10:02:41;100708.59;;;20.74;59.73
72685;BME280;61365;52.162;4.500;2023-09-19T10:07:49;100689.38;;;20.46;60.02
72685;BME280;61365;52.162;4.500;2023-09-19T10:10:29;100687.72;;;20.44;60.92
72685;BME280;61365;52.162;4.500;2023-09-19T10:13:19;100689.97;;;20.32;60.70
72685;BME280;61365;52.162;4.500;2023-09-19T10:15:51;100701.56;;;20.31;60.97
72685;BME280;61365;52.162;4.500;2023-09-19T10:18:21;100685.94;;;20.23;61.94
72685;BME280;61365;52.162;4.500;2023-09-19T10:20:49;100677.06;;;20.44;60.89
72685;BME280;61365;52.162;4.500;2023-09-19T10:23:19;100673.81;;;20.37;60.88
72685;BME280;61365;52.162;4.500;2023-09-19T10:25:51;100665.28;;;20.29;60.30
72685;BME280;61365;52.162;4.500;2023-09-19T10:28:18;100681.00;;;20.94;59.49
72685;BME280;61365;52.162;4.500;2023-09-19T10:30:50;100675.91;;;20.89;59.15
72685;BME280;61365;52.162;4.500;2023-09-19T10:33:19;100672.31;;;20.90;58.75
72685;BME280;61365;52.162;4.500;2023-09-19T10:35:52;100669.78;;;20.87;59.49
72685;BME280;61365;52.162;4.500;2023-09-19T10:38:24;100670.53;;;20.51;60.63
72685;BME280;61365;52.162;4.500;2023-09-19T10:40:55;100670.88;;;20.22;60.91
72685;BME280;61365;52.162;4.500;2023-09-19T10:43:28;100678.41;;;20.13;61.59
72685;BME280;61365;52.162;4.500;2023-09-19T10:46:00;100671.53;;;20.28;62.09
72685;BME280;61365;52.162;4.500;2023-09-19T10:48:31;100669.69;;;20.30;61.83
72685;BME280;61365;52.162;4.500;2023-09-19T10:56:49;100673.75;;;20.78;60.36
72685;BME280;61365;52.162;4.500;2023-09-19T10:59:17;100657.41;;;20.65;61.19
72685;BME280;61365;52.162;4.500;2023-09-19T11:01:45;100658.28;;;20.66;60.07
72685;BME280;61365;52.162;4.500;2023-09-19T11:07:10;100656.44;;;20.68;61.19
72685;BME280;61365;52.162;4.500;2023-09-19T11:09:44;100654.31;;;20.55;60.56
72685;BME280;61365;52.162;4.500;2023-09-19T11:15:01;100636.38;;;20.40;61.22
72685;BME280;61365;52.162;4.500;2023-09-19T11:28:42;100650.00;;;20.13;63.13
72685;BME280;61365;52.162;4.500;2023-09-19T11:30:48;100659.69;;;19.93;63.70
72685;BME280;61365;52.162;4.500;2023-09-19T11:33:19;100649.91;;;19.51;65.50
72685;BME280;61365;52.162;4.500;2023-09-19T11:46:30;100644.03;;;20.06;64.83
72685;BME280;61365;52.162;4.500;2023-09-19T11:49:04;100642.75;;;20.36;64.53
72685;BME280;61365;52.162;4.500;2023-09-19T11:51:42;100640.84;;;20.19;64.20
72685;BME280;61365;52.162;4.500;2023-09-19T11:54:10;100646.78;;;20.05;64.13
72685;BME280;61365;52.162;4.500;2023-09-19T11:56:51;100655.44;;;20.10;64.97
72685;BME280;61365;52.162;4.500;2023-09-19T11:59:23;100658.72;;;19.96;66.04
72685;BME280;61365;52.162;4.500;2023-09-19T12:01:54;100669.91;;;20.04;65.83
72685;BME280;61365;52.162;4.500;2023-09-19T12:04:33;100658.34;;;19.83;67.44
72685;BME280;61365;52.162;4.500;2023-09-19T12:07:12;100644.34;;;19.57;69.04
72685;BME280;61365;52.162;4.500;2023-09-19T12:12:20;100642.00;;;19.49;69.48
72685;BME280;61365;52.162;4.500;2023-09-19T12:14:53;100654.19;;;19.76;68.81
72685;BME280;61365;52.162;4.500;2023-09-19T12:17:20;100644.72;;;20.12;67.03
72685;BME280;61365;52.162;4.500;2023-09-19T12:19:50;100635.38;;;20.22;66.59
72685;BME280;61365;52.162;4.500;2023-09-19T12:22:17;100646.50;;;20.32;66.05
72685;BME280;61365;52.162;4.500;2023-09-19T12:24:46;100638.38;;;20.35;65.83
72685;BME280;61365;52.162;4.500;2023-09-19T12:27:12;100646.53;;;20.70;64.31
72685;BME280;61365;52.162;4.500;2023-09-19T12:29:46;100645.09;;;20.63;63.49
72685;BME280;61365;52.162;4.500;2023-09-19T12:32:14;100631.63;;;20.66;62.63
72685;BME280;61365;52.162;4.500;2023-09-19T12:34:42;100636.78;;;20.69;62.49
72685;BME280;61365;52.162;4.500;2023-09-19T12:37:18;100628.44;;;20.58;62.82
72685;BME280;61365;52.162;4.500;2023-09-19T12:39:51;100632.34;;;20.69;63.06
72685;BME280;61365;52.162;4.500;2023-09-19T12:42:24;100630.66;;;20.88;62.42
72685;BME280;61365;52.162;4.500;2023-09-19T12:44:58;100622.28;;;20.95;61.75
72685;BME280;61365;52.162;4.500;2023-09-19T12:47:26;100628.63;;;20.93;62.85
72685;BME280;61365;52.162;4.500;2023-09-19T12:52:47;100625.59;;;20.81;62.85
72685;BME280;61365;52.162;4.500;2023-09-19T12:55:22;100625.00;;;20.94;62.15
72685;BME280;61365;52.162;4.500;2023-09-19T12:57:55;100615.13;;;20.96;61.66
72685;BME280;61365;52.162;4.500;2023-09-19T13:00:41;100635.63;;;20.76;62.27
72685;BME280;61365;52.162;4.500;2023-09-19T13:03:25;100618.78;;;20.36;63.57
72685;BME280;61365;52.162;4.500;2023-09-19T13:06:01;100632.19;;;20.53;63.43
72685;BME280;61365;52.162;4.500;2023-09-19T13:08:30;100627.09;;;20.68;63.09
72685;BME280;61365;52.162;4.500;2023-09-19T13:16:29;100626.78;;;20.36;65.74
72685;BME280;61365;52.162;4.500;2023-09-19T13:18:56;100644.09;;;20.25;65.95
72685;BME280;61365;52.162;4.500;2023-09-19T13:21:31;100646.84;;;20.43;64.94
72685;BME280;61365;52.162;4.500;2023-09-19T13:24:21;100654.84;;;20.64;64.05
72685;BME280;61365;52.162;4.500;2023-09-19T13:26:49;100626.34;;;20.64;64.45
72685;BME280;61365;52.162;4.500;2023-09-19T13:29:15;100621.16;;;20.61;64.31
72685;BME280;61365;52.162;4.500;2023-09-19T13:31:50;100627.88;;;20.51;64.44
72685;BME280;61365;52.162;4.500;2023-09-19T13:34:19;100625.09;;;20.33;65.71
72685;BME280;61365;52.162;4.500;2023-09-19T13:36:45;100630.19;;;20.19;65.61
72685;BME280;61365;52.162;4.500;2023-09-19T13:39:15;100636.03;;;19.86;68.05
72685;BME280;61365;52.162;4.500;2023-09-19T13:41:46;100663.31;;;19.92;69.71
72685;BME280;61365;52.162;4.500;2023-09-19T13:44:16;100664.63;;;19.60;71.23
72685;BME280;61365;52.162;4.500;2023-09-19T13:46:43;100659.75;;;19.49;71.80
72685;BME280;61365;52.162;4.500;2023-09-19T13:49:11;100662.03;;;19.58;71.60
72685;BME280;61365;52.162;4.500;2023-09-19T13:51:37;100637.34;;;19.55;71.32
72685;BME280;61365;52.162;4.500;2023-09-19T13:54:03;100634.88;;;19.71;70.45
72685;BME280;61365;52.162;4.500;2023-09-19T13:56:29;100627.19;;;19.85;70.00
72685;BME280;61365;52.162;4.500;2023-09-19T13:58:57;100633.03;;;19.73;70.19
72685;BME280;61365;52.162;4.500;2023-09-19T14:01:23;100642.22;;;19.65;70.36